sensor_id;sensor_type;location;lat;lon;timestamp;P1;durP1;ratioP1;P2;durP2;ratioP2
81006;SDS011;70472;47.592;17.640;2023-12-04T00:00:09;23.43;;;23.43;;
81006;SDS011;70472;47.592;17.640;2023-12-04T00:00:45;23.20;;;23.20;;
81006;SDS011;70472;47.592;17.640;2023-12-04T00:01:17;21.97;;;21.97;;
81006;SDS011;70472;47.592;17.640;2023-12-04T00:01:50;23.23;;;23.23;;
81006;SDS011;70472;47.592;17.640;2023-12-04T00:02:23;23.57;;;23.57;;
81006;SDS011;70472;47.592;17.640;2023-12-04T00:02:56;30.00;;;29.97;;
81006;SDS011;70472;47.592;17.640;2023-12-04T00:03:28;29.20;;;29.20;;
81006;SDS011;70472;47.592;17.640;2023-12-04T00:04:01;28.90;;;28.57;;
81006;SDS011;70472;47.592;17.640;2023-12-04T00:04:33;30.47;;;29.23;;
81006;SDS011;70472;47.592;17.640;2023-12-04T00:05:06;28.37;;;28.30;;
81006;SDS011;70472;47.592;17.640;2023-12-04T00:05:43;26.63;;;26.53;;
81006;SDS011;70472;47.592;17.640;2023-12-04T00:06:16;27.23;;;27.23;;
81006;SDS011;70472;47.592;17.640;2023-12-04T00:06:48;26.30;;;26.07;;
81006;SDS011;70472;47.592;17.640;2023-12-04T00:07:20;30.40;;;30.40;;
81006;SDS011;70472;47.592;17.640;2023-12-04T00:07:53;37.83;;;37.83;;
81006;SDS011;70472;47.592;17.640;2023-12-04T00:08:26;38.60;;;38.60;;
81006;SDS011;70472;47.592;17.640;2023-12-04T00:08:58;30.73;;;30.73;;
81006;SDS011;70472;47.592;17.640;2023-12-04T00:09:30;26.57;;;26.40;;
81006;SDS011;70472;47.592;17.640;2023-12-04T00:10:03;25.43;;;25.13;;
81006;SDS011;70472;47.592;17.640;2023-12-04T00:10:36;22.90;;;22.90;;
81006;SDS011;70472;47.592;17.640;2023-12-04T00:11:09;23.60;;;23.60;;
81006;SDS011;70472;47.592;17.640;2023-12-04T00:11:41;25.90;;;25.90;;
81006;SDS011;70472;47.592;17.640;2023-12-04T00:12:14;28.80;;;28.80;;
81006;SDS011;70472;47.592;17.640;2023-12-04T00:12:46;30.70;;;30.70;;
81006;SDS011;70472;47.592;17.640;2023-12-04T00:13:19;29.80;;;29.80;;
81006;SDS011;70472;47.592;17.640;2023-12-04T00:13:51;29.50;;;29.50;;
81006;SDS011;70472;47.592;17.640;2023-12-04T00:14:24;32.03;;;32.03;;
81006;SDS011;70472;47.592;17.640;2023-12-04T00:14:56;30.40;;;30.37;;
81006;SDS011;70472;47.592;17.640;2023-12-04T00:15:28;31.03;;;31.03;;
81006;SDS011;70472;47.592;17.640;2023-12-04T00:16:01;30.27;;;30.27;;
81006;SDS011;70472;47.592;17.640;2023-12-04T00:16:34;29.03;;;29.03;;
81006;SDS011;70472;47.592;17.640;2023-12-04T00:17:06;27.63;;;27.63;;
81006;SDS011;70472;47.592;17.640;2023-12-04T00:17:39;24.83;;;24.83;;
81006;SDS011;70472;47.592;17.640;2023-12-04T00:18:11;25.13;;;25.13;;
81006;SDS011;70472;47.592;17.640;2023-12-04T00:18:44;25.33;;;25.33;;
81006;SDS011;70472;47.592;17.640;2023-12-04T00:19:18;25.10;;;25.10;;
81006;SDS011;70472;47.592;17.640;2023-12-04T00:19:50;25.37;;;25.37;;
81006;SDS011;70472;47.592;17.640;2023-12-04T00:20:23;24.17;;;24.17;;
81006;SDS011;70472;47.592;17.640;2023-12-04T00:20:55;25.00;;;25.00;;
81006;SDS011;70472;47.592;17.640;2023-12-04T00:21:29;25.20;;;25.20;;
81006;SDS011;70472;47.592;17.640;2023-12-04T00:22:02;25.50;;;25.50;;
81006;SDS011;70472;47.592;17.640;2023-12-04T00:22:35;25.27;;;25.27;;
81006;SDS011;70472;47.592;17.640;2023-12-04T00:23:10;24.33;;;24.00;;
81006;SDS011;70472;47.592;17.640;2023-12-04T00:23:47;23.13;;;23.13;;
81006;SDS011;70472;47.592;17.640;2023-12-04T00:24:20;24.63;;;24.63;;
81006;SDS011;70472;47.592;17.640;2023-12-04T00:24:52;24.80;;;24.80;;
81006;SDS011;70472;47.592;17.640;2023-12-04T00:25:25;23.70;;;23.70;;
81006;SDS011;70472;47.592;17.640;2023-12-04T00:25:57;23.70;;;23.70;;
81006;SDS011;70472;47.592;17.640;2023-12-04T00:26:30;23.60;;;23.60;;
81006;SDS011;70472;47.592;17.640;2023-12-04T00:27:02;22.87;;;22.87;;
81006;SDS011;70472;47.592;17.640;2023-12-04T00:27:35;22.33;;;22.33;;
81006;SDS011;70472;47.592;17.640;2023-12-04T00:28:07;23.47;;;23.47;;
81006;SDS011;70472;47.592;17.640;2023-12-04T00:28:40;24.70;;;24.30;;
81006;SDS011;70472;47.592;17.640;2023-12-04T00:29:12;23.37;;;23.23;;
81006;SDS011;70472;47.592;17.640;2023-12-04T00:29:45;22.77;;;22.77;;
81006;SDS011;70472;47.592;17.640;2023-12-04T00:30:19;22.90;;;22.90;;
81006;SDS011;70472;47.592;17.640;2023-12-04T00:30:51;22.00;;;22.00;;
81006;SDS011;70472;47.592;17.640;2023-12-04T00:31:23;21.97;;;21.97;;
81006;SDS011;70472;47.592;17.640;2023-12-04T00:31:56;22.43;;;22.43;;
81006;SDS011;70472;47.592;17.640;2023-12-04T00:32:28;23.00;;;23.00;;
81006;SDS011;70472;47.592;17.640;2023-12-04T00:33:01;23.13;;;23.13;;
81006;SDS011;70472;47.592;17.640;2023-12-04T00:33:33;22.30;;;22.30;;
81006;SDS011;70472;47.592;17.640;2023-12-04T00:34:06;22.77;;;22.77;;
81006;SDS011;70472;47.592;17.640;2023-12-04T00:34:38;21.67;;;21.67;;
81006;SDS011;70472;47.592;17.640;2023-12-04T00:35:11;23.27;;;23.27;;
81006;SDS011;70472;47.592;17.640;2023-12-04T00:35:43;23.60;;;23.60;;
81006;SDS011;70472;47.592;17.640;2023-12-04T00:36:15;22.57;;;22.57;;
81006;SDS011;70472;47.592;17.640;2023-12-04T00:36:48;21.80;;;21.80;;
81006;SDS011;70472;47.592;17.640;2023-12-04T00:37:20;23.73;;;23.40;;
81006;SDS011;70472;47.592;17.640;2023-12-04T00:37:53;25.00;;;23.93;;
81006;SDS011;70472;47.592;17.640;2023-12-04T00:38:25;23.17;;;22.33;;
81006;SDS011;70472;47.592;17.640;2023-12-04T00:38:58;23.57;;;23.57;;
81006;SDS011;70472;47.592;17.640;2023-12-04T00:39:30;22.57;;;22.57;;
81006;SDS011;70472;47.592;17.640;2023-12-04T00:40:03;23.13;;;23.13;;
81006;SDS011;70472;47.592;17.640;2023-12-04T00:40:37;23.13;;;23.13;;
81006;SDS011;70472;47.592;17.640;2023-12-04T00:41:10;24.00;;;23.97;;
81006;SDS011;70472;47.592;17.640;2023-12-04T00:41:43;22.63;;;22.63;;
81006;SDS011;70472;47.592;17.640;2023-12-04T00:42:15;23.23;;;23.23;;
81006;SDS011;70472;47.592;17.640;2023-12-04T00:42:48;23.50;;;23.50;;
81006;SDS011;70472;47.592;17.640;2023-12-04T00:43:20;24.30;;;24.30;;
81006;SDS011;70472;47.592;17.640;2023-12-04T00:43:53;23.57;;;23.57;;
81006;SDS011;70472;47.592;17.640;2023-12-04T00:44:25;22.73;;;22.73;;
81006;SDS011;70472;47.592;17.640;2023-12-04T00:44:58;21.47;;;21.47;;
81006;SDS011;70472;47.592;17.640;2023-12-04T00:45:30;22.57;;;22.53;;
81006;SDS011;70472;47.592;17.640;2023-12-04T00:46:03;23.67;;;23.67;;
81006;SDS011;70472;47.592;17.640;2023-12-04T00:46:35;23.47;;;23.47;;
81006;SDS011;70472;47.592;17.640;2023-12-04T00:47:08;23.33;;;23.33;;
81006;SDS011;70472;47.592;17.640;2023-12-04T00:47:40;22.33;;;22.33;;
81006;SDS011;70472;47.592;17.640;2023-12-04T00:48:12;22.03;;;22.03;;
81006;SDS011;70472;47.592;17.640;2023-12-04T00:48:45;22.90;;;22.90;;
81006;SDS011;70472;47.592;17.640;2023-12-04T00:49:18;21.50;;;21.50;;
81006;SDS011;70472;47.592;17.640;2023-12-04T00:49:50;20.97;;;20.97;;
81006;SDS011;70472;47.592;17.640;2023-12-04T00:50:23;21.27;;;21.23;;
81006;SDS011;70472;47.592;17.640;2023-12-04T00:50:55;21.70;;;21.70;;
81006;SDS011;70472;47.592;17.640;2023-12-04T00:51:36;22.57;;;22.57;;
81006;SDS011;70472;47.592;17.640;2023-12-04T00:52:09;20.90;;;20.90;;
81006;SDS011;70472;47.592;17.640;2023-12-04T00:52:44;21.33;;;21.33;;
81006;SDS011;70472;47.592;17.640;2023-12-04T00:53:17;21.67;;;21.67;;
81006;SDS011;70472;47.592;17.640;2023-12-04T00:53:49;22.43;;;22.43;;
81006;SDS011;70472;47.592;17.640;2023-12-04T00:54:22;21.53;;;21.53;;
81006;SDS011;70472;47.592;17.640;2023-12-04T00:55:02;22.80;;;22.80;;
81006;SDS011;70472;47.592;17.640;2023-12-04T00:55:34;22.23;;;22.23;;
81006;SDS011;70472;47.592;17.640;2023-12-04T00:56:07;22.47;;;22.47;;
81006;SDS011;70472;47.592;17.640;2023-12-04T00:56:40;21.93;;;21.93;;
81006;SDS011;70472;47.592;17.640;2023-12-04T00:57:14;21.93;;;21.93;;
81006;SDS011;70472;47.592;17.640;2023-12-04T00:57:46;22.23;;;22.23;;
81006;SDS011;70472;47.592;17.640;2023-12-04T00:58:18;22.27;;;22.23;;
81006;SDS011;70472;47.592;17.640;2023-12-04T00:58:51;23.17;;;23.17;;
81006;SDS011;70472;47.592;17.640;2023-12-04T00:59:23;22.27;;;22.27;;
81006;SDS011;70472;47.592;17.640;2023-12-04T00:59:56;22.50;;;22.50;;
81006;SDS011;70472;47.592;17.640;2023-12-04T01:00:28;22.17;;;22.17;;
81006;SDS011;70472;47.592;17.640;2023-12-04T01:01:01;23.00;;;23.00;;
81006;SDS011;70472;47.592;17.640;2023-12-04T01:01:33;22.23;;;22.23;;
81006;SDS011;70472;47.592;17.640;2023-12-04T01:02:06;24.27;;;24.27;;
81006;SDS011;70472;47.592;17.640;2023-12-04T01:02:40;23.37;;;23.37;;
81006;SDS011;70472;47.592;17.640;2023-12-04T01:03:13;23.40;;;23.40;;
81006;SDS011;70472;47.592;17.640;2023-12-04T01:03:45;22.53;;;22.53;;
81006;SDS011;70472;47.592;17.640;2023-12-04T01:04:18;22.80;;;22.80;;
81006;SDS011;70472;47.592;17.640;2023-12-04T01:04:50;23.40;;;23.40;;
81006;SDS011;70472;47.592;17.640;2023-12-04T01:05:23;22.90;;;22.90;;
81006;SDS011;70472;47.592;17.640;2023-12-04T01:05:55;23.93;;;23.77;;
81006;SDS011;70472;47.592;17.640;2023-12-04T01:06:28;23.20;;;23.20;;
81006;SDS011;70472;47.592;17.640;2023-12-04T01:07:01;23.00;;;22.73;;
81006;SDS011;70472;47.592;17.640;2023-12-04T01:07:33;22.13;;;21.87;;
81006;SDS011;70472;47.592;17.640;2023-12-04T01:08:06;22.27;;;22.27;;
81006;SDS011;70472;47.592;17.640;2023-12-04T01:08:38;23.20;;;23.17;;
81006;SDS011;70472;47.592;17.640;2023-12-04T01:09:11;24.07;;;23.57;;
81006;SDS011;70472;47.592;17.640;2023-12-04T01:09:43;22.43;;;22.40;;
81006;SDS011;70472;47.592;17.640;2023-12-04T01:10:17;23.20;;;23.20;;
81006;SDS011;70472;47.592;17.640;2023-12-04T01:10:50;23.10;;;23.10;;
81006;SDS011;70472;47.592;17.640;2023-12-04T01:11:22;22.87;;;22.87;;
81006;SDS011;70472;47.592;17.640;2023-12-04T01:11:56;22.60;;;22.60;;
81006;SDS011;70472;47.592;17.640;2023-12-04T01:12:29;23.40;;;23.40;;
81006;SDS011;70472;47.592;17.640;2023-12-04T01:13:01;22.00;;;22.00;;
81006;SDS011;70472;47.592;17.640;2023-12-04T01:13:34;22.00;;;22.00;;
81006;SDS011;70472;47.592;17.640;2023-12-04T01:14:07;22.93;;;22.93;;
81006;SDS011;70472;47.592;17.640;2023-12-04T01:14:40;22.23;;;22.23;;
81006;SDS011;70472;47.592;17.640;2023-12-04T01:15:13;22.67;;;22.67;;
81006;SDS011;70472;47.592;17.640;2023-12-04T01:15:46;22.53;;;22.53;;
81006;SDS011;70472;47.592;17.640;2023-12-04T01:16:18;23.30;;;23.30;;
81006;SDS011;70472;47.592;17.640;2023-12-04T01:16:51;22.77;;;22.77;;
81006;SDS011;70472;47.592;17.640;2023-12-04T01:17:23;22.30;;;22.30;;
81006;SDS011;70472;47.592;17.640;2023-12-04T01:17:56;24.07;;;24.07;;
81006;SDS011;70472;47.592;17.640;2023-12-04T01:18:28;22.37;;;22.37;;
81006;SDS011;70472;47.592;17.640;2023-12-04T01:19:00;21.07;;;20.83;;
81006;SDS011;70472;47.592;17.640;2023-12-04T01:19:33;21.00;;;20.97;;
81006;SDS011;70472;47.592;17.640;2023-12-04T01:20:05;20.70;;;20.70;;
81006;SDS011;70472;47.592;17.640;2023-12-04T01:20:39;20.47;;;20.47;;
81006;SDS011;70472;47.592;17.640;2023-12-04T01:21:12;22.30;;;22.13;;
81006;SDS011;70472;47.592;17.640;2023-12-04T01:21:44;21.90;;;21.90;;
81006;SDS011;70472;47.592;17.640;2023-12-04T01:22:17;21.83;;;21.83;;
81006;SDS011;70472;47.592;17.640;2023-12-04T01:22:49;21.67;;;21.67;;
81006;SDS011;70472;47.592;17.640;2023-12-04T01:23:22;22.17;;;22.17;;
81006;SDS011;70472;47.592;17.640;2023-12-04T01:23:55;22.80;;;22.80;;
81006;SDS011;70472;47.592;17.640;2023-12-04T01:24:28;22.20;;;22.20;;
81006;SDS011;70472;47.592;17.640;2023-12-04T01:25:00;21.33;;;21.33;;
81006;SDS011;70472;47.592;17.640;2023-12-04T01:25:33;20.73;;;20.73;;
81006;SDS011;70472;47.592;17.640;2023-12-04T01:26:05;21.20;;;21.20;;
81006;SDS011;70472;47.592;17.640;2023-12-04T01:26:38;20.80;;;20.80;;
81006;SDS011;70472;47.592;17.640;2023-12-04T01:27:10;21.77;;;21.77;;
81006;SDS011;70472;47.592;17.640;2023-12-04T01:27:43;22.20;;;22.20;;
81006;SDS011;70472;47.592;17.640;2023-12-04T01:28:15;20.93;;;20.93;;
81006;SDS011;70472;47.592;17.640;2023-12-04T01:28:48;20.93;;;20.93;;
81006;SDS011;70472;47.592;17.640;2023-12-04T01:29:21;20.73;;;20.73;;
81006;SDS011;70472;47.592;17.640;2023-12-04T01:29:53;22.70;;;22.70;;
81006;SDS011;70472;47.592;17.640;2023-12-04T01:30:25;22.90;;;22.90;;
81006;SDS011;70472;47.592;17.640;2023-12-04T01:30:58;22.60;;;22.60;;
81006;SDS011;70472;47.592;17.640;2023-12-04T01:31:30;22.47;;;22.47;;
81006;SDS011;70472;47.592;17.640;2023-12-04T01:32:04;22.33;;;22.33;;
81006;SDS011;70472;47.592;17.640;2023-12-04T01:32:37;22.33;;;22.27;;
81006;SDS011;70472;47.592;17.640;2023-12-04T01:33:10;21.23;;;21.23;;
81006;SDS011;70472;47.592;17.640;2023-12-04T01:33:42;21.43;;;21.43;;
81006;SDS011;70472;47.592;17.640;2023-12-04T01:34:15;21.80;;;21.80;;
81006;SDS011;70472;47.592;17.640;2023-12-04T01:34:47;22.50;;;22.50;;
81006;SDS011;70472;47.592;17.640;2023-12-04T01:35:20;22.43;;;22.43;;
81006;SDS011;70472;47.592;17.640;2023-12-04T01:35:52;22.10;;;22.10;;
81006;SDS011;70472;47.592;17.640;2023-12-04T01:36:24;21.47;;;21.47;;
81006;SDS011;70472;47.592;17.640;2023-12-04T01:36:57;20.80;;;20.80;;
81006;SDS011;70472;47.592;17.640;2023-12-04T01:37:29;21.47;;;21.43;;
81006;SDS011;70472;47.592;17.640;2023-12-04T01:38:02;21.27;;;21.20;;
81006;SDS011;70472;47.592;17.640;2023-12-04T01:38:34;20.97;;;20.97;;
81006;SDS011;70472;47.592;17.640;2023-12-04T01:39:09;21.13;;;21.13;;
81006;SDS011;70472;47.592;17.640;2023-12-04T01:39:41;20.87;;;20.87;;
81006;SDS011;70472;47.592;17.640;2023-12-04T01:40:13;21.13;;;21.13;;
81006;SDS011;70472;47.592;17.640;2023-12-04T01:40:46;22.47;;;22.47;;
81006;SDS011;70472;47.592;17.640;2023-12-04T01:41:18;21.67;;;21.67;;
81006;SDS011;70472;47.592;17.640;2023-12-04T01:41:51;20.23;;;20.23;;
81006;SDS011;70472;47.592;17.640;2023-12-04T01:42:23;20.87;;;20.83;;
81006;SDS011;70472;47.592;17.640;2023-12-04T01:42:55;20.63;;;20.63;;
81006;SDS011;70472;47.592;17.640;2023-12-04T01:43:28;20.67;;;20.67;;
81006;SDS011;70472;47.592;17.640;2023-12-04T01:44:00;21.10;;;21.10;;
81006;SDS011;70472;47.592;17.640;2023-12-04T01:44:33;20.90;;;20.90;;
81006;SDS011;70472;47.592;17.640;2023-12-04T01:45:05;20.37;;;20.37;;
81006;SDS011;70472;47.592;17.640;2023-12-04T01:45:38;20.87;;;20.83;;
81006;SDS011;70472;47.592;17.640;2023-12-04T01:46:11;20.20;;;19.93;;
81006;SDS011;70472;47.592;17.640;2023-12-04T01:46:48;19.47;;;19.47;;
81006;SDS011;70472;47.592;17.640;2023-12-04T01:47:21;20.23;;;20.23;;
81006;SDS011;70472;47.592;17.640;2023-12-04T01:47:54;19.63;;;19.63;;
81006;SDS011;70472;47.592;17.640;2023-12-04T01:48:27;19.30;;;19.30;;
81006;SDS011;70472;47.592;17.640;2023-12-04T01:49:05;20.93;;;20.93;;
81006;SDS011;70472;47.592;17.640;2023-12-04T01:49:37;20.90;;;20.90;;
81006;SDS011;70472;47.592;17.640;2023-12-04T01:50:10;21.33;;;21.33;;
81006;SDS011;70472;47.592;17.640;2023-12-04T01:50:46;19.93;;;19.93;;
81006;SDS011;70472;47.592;17.640;2023-12-04T01:51:19;20.40;;;20.40;;
81006;SDS011;70472;47.592;17.640;2023-12-04T01:51:53;21.40;;;21.40;;
81006;SDS011;70472;47.592;17.640;2023-12-04T01:52:25;20.67;;;20.67;;
81006;SDS011;70472;47.592;17.640;2023-12-04T01:52:58;19.10;;;19.10;;
81006;SDS011;70472;47.592;17.640;2023-12-04T01:53:31;19.70;;;19.70;;
81006;SDS011;70472;47.592;17.640;2023-12-04T01:54:04;19.43;;;19.43;;
81006;SDS011;70472;47.592;17.640;2023-12-04T01:54:38;19.70;;;19.70;;
81006;SDS011;70472;47.592;17.640;2023-12-04T01:55:12;20.13;;;20.13;;
81006;SDS011;70472;47.592;17.640;2023-12-04T01:55:45;20.70;;;20.70;;
81006;SDS011;70472;47.592;17.640;2023-12-04T01:56:18;19.37;;;19.37;;
81006;SDS011;70472;47.592;17.640;2023-12-04T01:56:52;19.97;;;19.97;;
81006;SDS011;70472;47.592;17.640;2023-12-04T01:57:25;20.47;;;20.47;;
81006;SDS011;70472;47.592;17.640;2023-12-04T01:57:57;19.97;;;19.97;;
81006;SDS011;70472;47.592;17.640;2023-12-04T01:58:30;19.83;;;19.83;;
81006;SDS011;70472;47.592;17.640;2023-12-04T01:59:02;21.13;;;21.13;;
81006;SDS011;70472;47.592;17.640;2023-12-04T01:59:36;20.43;;;20.43;;
81006;SDS011;70472;47.592;17.640;2023-12-04T02:00:08;20.23;;;20.23;;
81006;SDS011;70472;47.592;17.640;2023-12-04T02:00:44;20.73;;;20.73;;
81006;SDS011;70472;47.592;17.640;2023-12-04T02:01:17;20.97;;;20.97;;
81006;SDS011;70472;47.592;17.640;2023-12-04T02:01:52;20.27;;;20.27;;
81006;SDS011;70472;47.592;17.640;2023-12-04T02:02:25;20.47;;;20.47;;
81006;SDS011;70472;47.592;17.640;2023-12-04T02:03:00;20.20;;;20.20;;
81006;SDS011;70472;47.592;17.640;2023-12-04T02:03:33;20.90;;;20.90;;
81006;SDS011;70472;47.592;17.640;2023-12-04T02:04:06;20.47;;;20.47;;
81006;SDS011;70472;47.592;17.640;2023-12-04T02:04:39;20.10;;;20.10;;
81006;SDS011;70472;47.592;17.640;2023-12-04T02:05:13;20.30;;;20.30;;
81006;SDS011;70472;47.592;17.640;2023-12-04T02:05:47;19.40;;;19.40;;
81006;SDS011;70472;47.592;17.640;2023-12-04T02:06:22;20.17;;;20.17;;
81006;SDS011;70472;47.592;17.640;2023-12-04T02:06:55;19.17;;;19.17;;
81006;SDS011;70472;47.592;17.640;2023-12-04T02:07:27;18.63;;;18.63;;
81006;SDS011;70472;47.592;17.640;2023-12-04T02:08:00;18.77;;;18.77;;
81006;SDS011;70472;47.592;17.640;2023-12-04T02:08:34;19.70;;;19.70;;
81006;SDS011;70472;47.592;17.640;2023-12-04T02:09:08;19.67;;;19.67;;
81006;SDS011;70472;47.592;17.640;2023-12-04T02:09:40;20.70;;;20.70;;
81006;SDS011;70472;47.592;17.640;2023-12-04T02:10:13;20.60;;;20.60;;
81006;SDS011;70472;47.592;17.640;2023-12-04T02:10:45;19.40;;;19.40;;
81006;SDS011;70472;47.592;17.640;2023-12-04T02:11:18;19.57;;;19.57;;
81006;SDS011;70472;47.592;17.640;2023-12-04T02:11:50;18.83;;;18.83;;
81006;SDS011;70472;47.592;17.640;2023-12-04T02:12:23;19.90;;;19.90;;
81006;SDS011;70472;47.592;17.640;2023-12-04T02:12:56;19.70;;;19.70;;
81006;SDS011;70472;47.592;17.640;2023-12-04T02:13:29;18.47;;;18.47;;
81006;SDS011;70472;47.592;17.640;2023-12-04T02:14:01;18.70;;;18.70;;
81006;SDS011;70472;47.592;17.640;2023-12-04T02:14:34;18.43;;;18.43;;
81006;SDS011;70472;47.592;17.640;2023-12-04T02:15:07;18.70;;;18.70;;
81006;SDS011;70472;47.592;17.640;2023-12-04T02:15:40;17.80;;;17.80;;
81006;SDS011;70472;47.592;17.640;2023-12-04T02:16:13;19.00;;;19.00;;
81006;SDS011;70472;47.592;17.640;2023-12-04T02:16:48;20.10;;;20.10;;
81006;SDS011;70472;47.592;17.640;2023-12-04T02:17:22;19.60;;;19.60;;
81006;SDS011;70472;47.592;17.640;2023-12-04T02:17:56;19.00;;;19.00;;
81006;SDS011;70472;47.592;17.640;2023-12-04T02:18:29;18.53;;;18.53;;
81006;SDS011;70472;47.592;17.640;2023-12-04T02:19:02;18.47;;;18.47;;
81006;SDS011;70472;47.592;17.640;2023-12-04T02:19:38;20.10;;;20.10;;
81006;SDS011;70472;47.592;17.640;2023-12-04T02:20:12;18.47;;;18.47;;
81006;SDS011;70472;47.592;17.640;2023-12-04T02:20:45;18.70;;;18.67;;
81006;SDS011;70472;47.592;17.640;2023-12-04T02:21:18;19.47;;;19.40;;
81006;SDS011;70472;47.592;17.640;2023-12-04T02:21:50;20.23;;;20.23;;
81006;SDS011;70472;47.592;17.640;2023-12-04T02:22:23;19.90;;;19.90;;
81006;SDS011;70472;47.592;17.640;2023-12-04T02:22:55;20.13;;;20.13;;
81006;SDS011;70472;47.592;17.640;2023-12-04T02:23:28;20.37;;;20.37;;
81006;SDS011;70472;47.592;17.640;2023-12-04T02:24:00;20.67;;;20.67;;
81006;SDS011;70472;47.592;17.640;2023-12-04T02:24:33;20.83;;;20.83;;
81006;SDS011;70472;47.592;17.640;2023-12-04T02:25:06;19.83;;;19.83;;
81006;SDS011;70472;47.592;17.640;2023-12-04T02:25:48;18.70;;;18.70;;
81006;SDS011;70472;47.592;17.640;2023-12-04T02:26:24;19.40;;;19.40;;
81006;SDS011;70472;47.592;17.640;2023-12-04T02:27:17;20.40;;;20.40;;
81006;SDS011;70472;47.592;17.640;2023-12-04T02:27:56;20.33;;;20.33;;
81006;SDS011;70472;47.592;17.640;2023-12-04T02:28:34;19.97;;;19.97;;
81006;SDS011;70472;47.592;17.640;2023-12-04T02:29:11;19.33;;;19.33;;
81006;SDS011;70472;47.592;17.640;2023-12-04T02:29:58;20.30;;;20.30;;
81006;SDS011;70472;47.592;17.640;2023-12-04T02:30:33;19.73;;;19.73;;
81006;SDS011;70472;47.592;17.640;2023-12-04T02:31:08;18.87;;;18.87;;
81006;SDS011;70472;47.592;17.640;2023-12-04T02:31:43;19.73;;;19.63;;
81006;SDS011;70472;47.592;17.640;2023-12-04T02:32:19;19.33;;;19.33;;
81006;SDS011;70472;47.592;17.640;2023-12-04T02:32:53;19.13;;;19.13;;
81006;SDS011;70472;47.592;17.640;2023-12-04T02:33:28;19.17;;;19.17;;
81006;SDS011;70472;47.592;17.640;2023-12-04T02:34:02;19.57;;;19.57;;
81006;SDS011;70472;47.592;17.640;2023-12-04T02:34:40;19.67;;;19.67;;
81006;SDS011;70472;47.592;17.640;2023-12-04T02:35:15;19.67;;;19.67;;
81006;SDS011;70472;47.592;17.640;2023-12-04T02:35:53;18.50;;;18.50;;
81006;SDS011;70472;47.592;17.640;2023-12-04T02:36:28;19.33;;;19.30;;
81006;SDS011;70472;47.592;17.640;2023-12-04T02:37:03;18.90;;;18.90;;
81006;SDS011;70472;47.592;17.640;2023-12-04T02:37:38;19.27;;;19.27;;
81006;SDS011;70472;47.592;17.640;2023-12-04T02:38:13;19.27;;;19.27;;
81006;SDS011;70472;47.592;17.640;2023-12-04T02:38:46;19.63;;;19.60;;
81006;SDS011;70472;47.592;17.640;2023-12-04T02:39:19;20.20;;;20.20;;
81006;SDS011;70472;47.592;17.640;2023-12-04T02:39:52;19.90;;;19.60;;
81006;SDS011;70472;47.592;17.640;2023-12-04T02:40:25;18.87;;;18.83;;
81006;SDS011;70472;47.592;17.640;2023-12-04T02:40:57;18.53;;;18.53;;
81006;SDS011;70472;47.592;17.640;2023-12-04T02:41:30;17.87;;;17.83;;
81006;SDS011;70472;47.592;17.640;2023-12-04T02:42:03;19.17;;;19.13;;
81006;SDS011;70472;47.592;17.640;2023-12-04T02:42:36;18.43;;;18.43;;
81006;SDS011;70472;47.592;17.640;2023-12-04T02:43:08;18.67;;;18.67;;
81006;SDS011;70472;47.592;17.640;2023-12-04T02:43:40;17.67;;;17.67;;
81006;SDS011;70472;47.592;17.640;2023-12-04T02:44:13;19.00;;;19.00;;
81006;SDS011;70472;47.592;17.640;2023-12-04T02:44:45;19.03;;;19.03;;
81006;SDS011;70472;47.592;17.640;2023-12-04T02:45:18;19.00;;;19.00;;
81006;SDS011;70472;47.592;17.640;2023-12-04T02:45:50;18.37;;;18.37;;
81006;SDS011;70472;47.592;17.640;2023-12-04T02:46:23;19.53;;;19.53;;
81006;SDS011;70472;47.592;17.640;2023-12-04T02:46:55;18.07;;;18.07;;
81006;SDS011;70472;47.592;17.640;2023-12-04T02:47:28;19.07;;;19.07;;
81006;SDS011;70472;47.592;17.640;2023-12-04T02:48:00;19.80;;;19.80;;
81006;SDS011;70472;47.592;17.640;2023-12-04T02:48:33;19.70;;;19.70;;
81006;SDS011;70472;47.592;17.640;2023-12-04T02:49:05;18.80;;;18.80;;
81006;SDS011;70472;47.592;17.640;2023-12-04T02:49:38;19.13;;;19.13;;
81006;SDS011;70472;47.592;17.640;2023-12-04T02:50:10;18.53;;;18.53;;
81006;SDS011;70472;47.592;17.640;2023-12-04T02:50:43;18.33;;;18.33;;
81006;SDS011;70472;47.592;17.640;2023-12-04T02:51:15;17.63;;;17.63;;
81006;SDS011;70472;47.592;17.640;2023-12-04T02:51:48;18.13;;;18.13;;
81006;SDS011;70472;47.592;17.640;2023-12-04T02:52:20;17.97;;;17.97;;
81006;SDS011;70472;47.592;17.640;2023-12-04T02:52:53;18.23;;;18.23;;
81006;SDS011;70472;47.592;17.640;2023-12-04T02:53:25;18.53;;;18.53;;
81006;SDS011;70472;47.592;17.640;2023-12-04T02:53:58;18.57;;;18.57;;
81006;SDS011;70472;47.592;17.640;2023-12-04T02:54:30;19.20;;;19.20;;
81006;SDS011;70472;47.592;17.640;2023-12-04T02:55:03;18.23;;;18.23;;
81006;SDS011;70472;47.592;17.640;2023-12-04T02:55:36;18.33;;;18.30;;
81006;SDS011;70472;47.592;17.640;2023-12-04T02:56:08;17.77;;;17.77;;
81006;SDS011;70472;47.592;17.640;2023-12-04T02:56:42;17.30;;;17.30;;
81006;SDS011;70472;47.592;17.640;2023-12-04T02:57:14;18.50;;;18.50;;
81006;SDS011;70472;47.592;17.640;2023-12-04T02:57:47;18.17;;;18.17;;
81006;SDS011;70472;47.592;17.640;2023-12-04T02:58:20;17.57;;;17.57;;
81006;SDS011;70472;47.592;17.640;2023-12-04T02:58:52;18.10;;;18.10;;
81006;SDS011;70472;47.592;17.640;2023-12-04T02:59:25;18.80;;;18.80;;
81006;SDS011;70472;47.592;17.640;2023-12-04T02:59:57;19.40;;;19.40;;
81006;SDS011;70472;47.592;17.640;2023-12-04T03:00:29;17.93;;;17.93;;
81006;SDS011;70472;47.592;17.640;2023-12-04T03:01:03;17.00;;;17.00;;
81006;SDS011;70472;47.592;17.640;2023-12-04T03:01:36;18.13;;;18.13;;
81006;SDS011;70472;47.592;17.640;2023-12-04T03:02:09;18.43;;;18.43;;
81006;SDS011;70472;47.592;17.640;2023-12-04T03:02:41;17.73;;;17.73;;
81006;SDS011;70472;47.592;17.640;2023-12-04T03:03:14;16.60;;;16.60;;
81006;SDS011;70472;47.592;17.640;2023-12-04T03:03:48;17.23;;;17.23;;
81006;SDS011;70472;47.592;17.640;2023-12-04T03:04:21;17.93;;;17.63;;
81006;SDS011;70472;47.592;17.640;2023-12-04T03:04:53;17.47;;;17.47;;
81006;SDS011;70472;47.592;17.640;2023-12-04T03:05:26;17.43;;;17.43;;
81006;SDS011;70472;47.592;17.640;2023-12-04T03:05:58;17.63;;;17.23;;
81006;SDS011;70472;47.592;17.640;2023-12-04T03:06:31;17.63;;;16.77;;
81006;SDS011;70472;47.592;17.640;2023-12-04T03:07:03;17.77;;;17.40;;
81006;SDS011;70472;47.592;17.640;2023-12-04T03:07:36;17.80;;;17.80;;
81006;SDS011;70472;47.592;17.640;2023-12-04T03:08:08;17.47;;;17.47;;
81006;SDS011;70472;47.592;17.640;2023-12-04T03:08:41;16.83;;;16.83;;
81006;SDS011;70472;47.592;17.640;2023-12-04T03:09:14;17.80;;;17.80;;
81006;SDS011;70472;47.592;17.640;2023-12-04T03:09:47;18.37;;;18.37;;
81006;SDS011;70472;47.592;17.640;2023-12-04T03:10:19;18.77;;;18.77;;
81006;SDS011;70472;47.592;17.640;2023-12-04T03:10:52;17.83;;;17.83;;